sensor_id;sensor_type;location;lat;lon;timestamp;pressure;altitude;pressure_sealevel;temperature;humidity
11223;BME280;5668;52.012;8.724;2023-03-01T00:02:16;101670.31;;;2.25;70.85
11223;BME280;5668;52.012;8.724;2023-03-01T00:04:43;101672.03;;;2.24;71.08
11223;BME280;5668;52.012;8.724;2023-03-01T00:07:11;101666.06;;;2.21;70.69
11223;BME280;5668;52.012;8.724;2023-03-01T00:09:39;101663.59;;;2.15;69.65
11223;BME280;5668;52.012;8.724;2023-03-01T00:12:07;101668.84;;;2.07;69.93
11223;BME280;5668;52.012;8.724;2023-03-01T00:14:34;101668.00;;;2.04;70.21
11223;BME280;5668;52.012;8.724;2023-03-01T00:17:02;101661.16;;;2.04;70.97
11223;BME280;5668;52.012;8.724;2023-03-01T00:19:29;101672.28;;;2.05;70.56
11223;BME280;5668;52.012;8.724;2023-03-01T00:21:58;101674.81;;;2.06;71.34
11223;BME280;5668;52.012;8.724;2023-03-01T00:24:25;101677.41;;;2.05;70.69
11223;BME280;5668;52.012;8.724;2023-03-01T00:26:55;101673.13;;;2.05;71.38
11223;BME280;5668;52.012;8.724;2023-03-01T00:29:22;101669.72;;;2.05;71.13
11223;BME280;5668;52.012;8.724;2023-03-01T00:31:50;101676.56;;;2.04;71.50
11223;BME280;5668;52.012;8.724;2023-03-01T00:34:17;101665.44;;;2.04;71.47
11223;BME280;5668;52.012;8.724;2023-03-01T00:36:44;101664.59;;;2.03;70.62
11223;BME280;5668;52.012;8.724;2023-03-01T00:39:14;101674.03;;;2.01;71.09
11223;BME280;5668;52.012;8.724;2023-03-01T00:41:41;101675.75;;;2.01;70.69
11223;BME280;5668;52.012;8.724;2023-03-01T00:44:10;101674.91;;;1.99;70.30
11223;BME280;5668;52.012;8.724;2023-03-01T00:46:39;101671.53;;;1.97;70.83
11223;BME280;5668;52.012;8.724;2023-03-01T00:49:06;101665.59;;;1.94;71.01
11223;BME280;5668;52.012;8.724;2023-03-01T00:51:33;101664.75;;;1.94;70.42
11223;BME280;5668;52.012;8.724;2023-03-01T00:54:02;101657.06;;;1.92;70.65
11223;BME280;5668;52.012;8.724;2023-03-01T00:56:30;101664.75;;;1.91;70.42
11223;BME280;5668;52.012;8.724;2023-03-01T00:58:57;101675.03;;;1.89;70.85
11223;BME280;5668;52.012;8.724;2023-03-01T01:01:28;101669.94;;;1.88;70.20
11223;BME280;5668;52.012;8.724;2023-03-01T01:03:57;101663.16;;;1.84;70.91
11223;BME280;5668;52.012;8.724;2023-03-01T01:06:26;101669.16;;;1.81;71.19
11223;BME280;5668;52.012;8.724;2023-03-01T01:08:55;101671.69;;;1.81;71.09
11223;BME280;5668;52.012;8.724;2023-03-01T01:11:26;101671.69;;;1.81;70.79
11223;BME280;5668;52.012;8.724;2023-03-01T01:13:54;101663.22;;;1.79;70.94
11223;BME280;5668;52.012;8.724;2023-03-01T01:16:23;101663.22;;;1.78;71.14
11223;BME280;5668;52.012;8.724;2023-03-01T01:18:52;101666.66;;;1.77;70.71
11223;BME280;5668;52.012;8.724;2023-03-01T01:21:22;101653.84;;;1.75;70.86
11223;BME280;5668;52.012;8.724;2023-03-01T01:23:50;101644.47;;;1.74;70.68
11223;BME280;5668;52.012;8.724;2023-03-01T01:26:20;101646.22;;;1.72;71.40
11223;BME280;5668;52.012;8.724;2023-03-01T01:28:48;101639.41;;;1.71;70.88
11223;BME280;5668;52.012;8.724;2023-03-01T01:31:15;101638.53;;;1.71;71.11
11223;BME280;5668;52.012;8.724;2023-03-01T01:33:42;101638.56;;;1.69;70.92
11223;BME280;5668;52.012;8.724;2023-03-01T01:36:11;101632.59;;;1.67;70.88
11223;BME280;5668;52.012;8.724;2023-03-01T01:38:39;101634.34;;;1.65;70.32
11223;BME280;5668;52.012;8.724;2023-03-01T01:41:08;101635.25;;;1.60;70.50
11223;BME280;5668;52.012;8.724;2023-03-01T01:43:39;101639.59;;;1.54;71.19
11223;BME280;5668;52.012;8.724;2023-03-01T01:46:15;101628.50;;;1.54;71.03
11223;BME280;5668;52.012;8.724;2023-03-01T01:48:50;101619.97;;;1.52;71.15
11223;BME280;5668;52.012;8.724;2023-03-01T01:51:24;101612.28;;;1.52;71.29
11223;BME280;5668;52.012;8.724;2023-03-01T01:53:56;101623.38;;;1.54;71.79
11223;BME280;5668;52.012;8.724;2023-03-01T01:56:27;101619.97;;;1.53;72.15
11223;BME280;5668;52.012;8.724;2023-03-01T01:58:56;101613.13;;;1.52;71.93
11223;BME280;5668;52.012;8.724;2023-03-01T02:01:24;101615.72;;;1.51;72.40
11223;BME280;5668;52.012;8.724;2023-03-01T02:03:52;101619.97;;;1.50;72.10
11223;BME280;5668;52.012;8.724;2023-03-01T02:06:25;101614.03;;;1.50;71.54
11223;BME280;5668;52.012;8.724;2023-03-01T02:09:02;101611.50;;;1.47;71.47
11223;BME280;5668;52.012;8.724;2023-03-01T02:11:31;101610.66;;;1.46;71.93
11223;BME280;5668;52.012;8.724;2023-03-01T02:13:59;101612.34;;;1.46;71.88
11223;BME280;5668;52.012;8.724;2023-03-01T02:16:27;101619.19;;;1.44;71.92
11223;BME280;5668;52.012;8.724;2023-03-01T02:18:55;101614.13;;;1.42;72.20
11223;BME280;5668;52.012;8.724;2023-03-01T02:21:34;101612.44;;;1.41;72.21
11223;BME280;5668;52.012;8.724;2023-03-01T02:24:08;101620.97;;;1.40;72.48
11223;BME280;5668;52.012;8.724;2023-03-01T02:26:42;101610.72;;;1.39;72.09
11223;BME280;5668;52.012;8.724;2023-03-01T02:29:13;101611.59;;;1.36;72.45
11223;BME280;5668;52.012;8.724;2023-03-01T02:31:40;101611.66;;;1.35;72.60
11223;BME280;5668;52.012;8.724;2023-03-01T02:34:12;101618.47;;;1.34;72.64
11223;BME280;5668;52.012;8.724;2023-03-01T02:36:43;101615.94;;;1.33;72.10
11223;BME280;5668;52.012;8.724;2023-03-01T02:39:14;101613.38;;;1.30;72.06
11223;BME280;5668;52.012;8.724;2023-03-01T02:41:46;101613.38;;;1.30;72.10
11223;BME280;5668;52.012;8.724;2023-03-01T02:44:15;101608.31;;;1.27;72.23
11223;BME280;5668;52.012;8.724;2023-03-01T02:46:43;101611.75;;;1.24;72.30
11223;BME280;5668;52.012;8.724;2023-03-01T02:49:20;101609.19;;;1.24;72.62
11223;BME280;5668;52.012;8.724;2023-03-01T02:52:01;101605.78;;;1.22;72.06
11223;BME280;5668;52.012;8.724;2023-03-01T02:54:36;101601.53;;;1.21;72.66
11223;BME280;5668;52.012;8.724;2023-03-01T02:57:07;101591.34;;;1.18;72.35
11223;BME280;5668;52.012;8.724;2023-03-01T02:59:37;101598.16;;;1.19;72.29
11223;BME280;5668;52.012;8.724;2023-03-01T03:02:06;101593.06;;;1.17;71.98
11223;BME280;5668;52.012;8.724;2023-03-01T03:04:34;101586.25;;;1.15;72.46
11223;BME280;5668;52.012;8.724;2023-03-01T03:07:01;101590.50;;;1.14;72.33
11223;BME280;5668;52.012;8.724;2023-03-01T03:09:28;101589.66;;;1.14;72.65
11223;BME280;5668;52.012;8.724;2023-03-01T03:11:55;101584.59;;;1.12;72.48
11223;BME280;5668;52.012;8.724;2023-03-01T03:14:23;101577.72;;;1.13;71.55
11223;BME280;5668;52.012;8.724;2023-03-01T03:16:51;101582.03;;;1.11;72.35
11223;BME280;5668;52.012;8.724;2023-03-01T03:19:19;101582.91;;;1.08;71.99
11223;BME280;5668;52.012;8.724;2023-03-01T03:21:47;101582.91;;;1.08;72.25
11223;BME280;5668;52.012;8.724;2023-03-01T03:24:15;101577.81;;;1.05;72.51
11223;BME280;5668;52.012;8.724;2023-03-01T03:26:43;101571.88;;;1.03;72.27
11223;BME280;5668;52.012;8.724;2023-03-01T03:29:10;101568.41;;;1.06;72.65
11223;BME280;5668;52.012;8.724;2023-03-01T03:31:37;101571.03;;;1.04;72.18
11223;BME280;5668;52.012;8.724;2023-03-01T03:34:06;101569.31;;;1.05;73.05
11223;BME280;5668;52.012;8.724;2023-03-01T03:36:33;101562.50;;;1.02;73.11
11223;BME280;5668;52.012;8.724;2023-03-01T03:39:00;101567.63;;;0.99;73.62
11223;BME280;5668;52.012;8.724;2023-03-01T03:41:27;101566.84;;;0.97;73.72
11223;BME280;5668;52.012;8.724;2023-03-01T03:43:54;101566.84;;;0.97;73.30
11223;BME280;5668;52.012;8.724;2023-03-01T03:46:22;101561.72;;;0.96;73.44
11223;BME280;5668;52.012;8.724;2023-03-01T03:48:49;101559.16;;;0.94;73.42
11223;BME280;5668;52.012;8.724;2023-03-01T03:51:18;101549.78;;;0.93;73.29
11223;BME280;5668;52.012;8.724;2023-03-01T03:53:45;101554.06;;;0.91;73.31
11223;BME280;5668;52.012;8.724;2023-03-01T03:56:13;101548.97;;;0.91;73.32
11223;BME280;5668;52.012;8.724;2023-03-01T03:58:40;101554.13;;;0.88;73.34
11223;BME280;5668;52.012;8.724;2023-03-01T04:01:07;101546.44;;;0.90;73.38
11223;BME280;5668;52.012;8.724;2023-03-01T04:03:34;101543.03;;;0.88;73.21
11223;BME280;5668;52.012;8.724;2023-03-01T04:06:02;101547.31;;;0.87;73.87
11223;BME280;5668;52.012;8.724;2023-03-01T04:08:32;101543.06;;;0.86;73.32
11223;BME280;5668;52.012;8.724;2023-03-01T04:11:02;101550.72;;;0.85;73.96
11223;BME280;5668;52.012;8.724;2023-03-01T04:13:50;101560.97;;;0.83;73.74
11223;BME280;5668;52.012;8.724;2023-03-01T04:16:18;101559.34;;;0.76;71.54
11223;BME280;5668;52.012;8.724;2023-03-01T04:18:45;101552.72;;;0.57;71.87
11223;BME280;5668;52.012;8.724;2023-03-01T04:21:13;101558.88;;;0.36;72.92
11223;BME280;5668;52.012;8.724;2023-03-01T04:23:41;101558.94;;;0.24;74.29
11223;BME280;5668;52.012;8.724;2023-03-01T04:26:09;101558.13;;;0.17;74.46
11223;BME280;5668;52.012;8.724;2023-03-01T04:28:38;101560.69;;;0.17;74.26
11223;BME280;5668;52.012;8.724;2023-03-01T04:31:07;101558.97;;;0.22;74.47
11223;BME280;5668;52.012;8.724;2023-03-01T04:33:40;101555.53;;;0.25;74.33
11223;BME280;5668;52.012;8.724;2023-03-01T04:36:09;101556.44;;;0.18;74.51
11223;BME280;5668;52.012;8.724;2023-03-01T04:38:37;101564.19;;;0.07;74.80
11223;BME280;5668;52.012;8.724;2023-03-01T04:41:07;101556.59;;;-0.04;75.90
11223;BME280;5668;52.012;8.724;2023-03-01T04:43:36;101556.63;;;-0.14;76.34
11223;BME280;5668;52.012;8.724;2023-03-01T04:46:05;101558.38;;;-0.19;76.83
11223;BME280;5668;52.012;8.724;2023-03-01T04:48:34;101550.72;;;-0.22;77.24
11223;BME280;5668;52.012;8.724;2023-03-01T04:51:02;101554.16;;;-0.23;77.39
11223;BME280;5668;52.012;8.724;2023-03-01T04:53:30;101549.88;;;-0.21;77.15
11223;BME280;5668;52.012;8.724;2023-03-01T04:55:58;101551.53;;;-0.14;77.69
11223;BME280;5668;52.012;8.724;2023-03-01T04:58:27;101552.31;;;-0.06;77.79
11223;BME280;5668;52.012;8.724;2023-03-01T05:00:55;101551.44;;;0.03;77.71
11223;BME280;5668;52.012;8.724;2023-03-01T05:03:22;101546.31;;;0.07;77.83
11223;BME280;5668;52.012;8.724;2023-03-01T05:05:51;101560.75;;;0.11;77.92
11223;BME280;5668;52.012;8.724;2023-03-01T05:08:19;101551.38;;;0.13;77.63
11223;BME280;5668;52.012;8.724;2023-03-01T05:10:48;101549.63;;;0.17;77.54
11223;BME280;5668;52.012;8.724;2023-03-01T05:13:16;101553.00;;;0.20;77.44
11223;BME280;5668;52.012;8.724;2023-03-01T05:15:53;101547.06;;;0.21;76.99
11223;BME280;5668;52.012;8.724;2023-03-01T05:18:20;101546.19;;;0.19;76.95
11223;BME280;5668;52.012;8.724;2023-03-01T05:20:52;101547.06;;;0.20;76.42
11223;BME280;5668;52.012;8.724;2023-03-01T05:23:22;101547.06;;;0.20;76.54
11223;BME280;5668;52.012;8.724;2023-03-01T05:25:49;101548.75;;;0.22;76.32
11223;BME280;5668;52.012;8.724;2023-03-01T05:28:19;101544.44;;;0.24;76.23
11223;BME280;5668;52.012;8.724;2023-03-01T05:30:48;101546.16;;;0.24;76.24
11223;BME280;5668;52.012;8.724;2023-03-01T05:33:17;101532.53;;;0.23;76.00
11223;BME280;5668;52.012;8.724;2023-03-01T05:35:45;101535.06;;;0.25;75.76
11223;BME280;5668;52.012;8.724;2023-03-01T05:38:15;101537.63;;;0.28;75.76
11223;BME280;5668;52.012;8.724;2023-03-01T05:40:43;101540.19;;;0.28;75.33
11223;BME280;5668;52.012;8.724;2023-03-01T05:43:12;101540.19;;;0.28;75.51
11223;BME280;5668;52.012;8.724;2023-03-01T05:45:40;101533.38;;;0.25;75.24
11223;BME280;5668;52.012;8.724;2023-03-01T05:48:10;101535.94;;;0.25;75.01
11223;BME280;5668;52.012;8.724;2023-03-01T05:50:40;101541.88;;;0.26;74.98
11223;BME280;5668;52.012;8.724;2023-03-01T05:53:10;101543.59;;;0.25;74.86
11223;BME280;5668;52.012;8.724;2023-03-01T05:55:39;101542.75;;;0.23;74.73
11223;BME280;5668;52.012;8.724;2023-03-01T05:58:07;101543.63;;;0.22;74.84
11223;BME280;5668;52.012;8.724;2023-03-01T06:00:36;101545.34;;;0.20;74.69
11223;BME280;5668;52.012;8.724;2023-03-01T06:03:03;101543.66;;;0.19;74.54
11223;BME280;5668;52.012;8.724;2023-03-01T06:05:32;101547.91;;;0.20;74.57
11223;BME280;5668;52.012;8.724;2023-03-01T06:08:00;101548.75;;;0.19;74.63
11223;BME280;5668;52.012;8.724;2023-03-01T06:10:28;101549.63;;;0.18;74.61
11223;BME280;5668;52.012;8.724;2023-03-01T06:12:55;101549.63;;;0.18;74.53
11223;BME280;5668;52.012;8.724;2023-03-01T06:15:23;101553.03;;;0.17;74.46
11223;BME280;5668;52.012;8.724;2023-03-01T06:17:53;101550.47;;;0.16;74.34
11223;BME280;5668;52.012;8.724;2023-03-01T06:20:23;101552.19;;;0.15;74.45
11223;BME280;5668;52.012;8.724;2023-03-01T06:22:52;101559.84;;;0.15;74.44
11223;BME280;5668;52.012;8.724;2023-03-01T06:25:21;101566.69;;;0.15;74.22
11223;BME280;5668;52.012;8.724;2023-03-01T06:27:49;101565.00;;;0.12;74.21
11223;BME280;5668;52.012;8.724;2023-03-01T06:30:19;101570.97;;;0.13;74.30
11223;BME280;5668;52.012;8.724;2023-03-01T06:32:47;101567.56;;;0.11;73.68
11223;BME280;5668;52.012;8.724;2023-03-01T06:35:15;101568.44;;;0.05;73.84
11223;BME280;5668;52.012;8.724;2023-03-01T06:37:44;101564.19;;;0.04;73.86
11223;BME280;5668;52.012;8.724;2023-03-01T06:40:15;101553.97;;;0.04;74.19
11223;BME280;5668;52.012;8.724;2023-03-01T06:42:47;101551.41;;;0.04;74.30
11223;BME280;5668;52.012;8.724;2023-03-01T06:45:16;101553.13;;;0.04;74.41
11223;BME280;5668;52.012;8.724;2023-03-01T06:47:43;101559.94;;;0.06;74.63
11223;BME280;5668;52.012;8.724;2023-03-01T06:50:12;101547.16;;;0.05;74.83
11223;BME280;5668;52.012;8.724;2023-03-01T06:52:40;101540.34;;;0.05;74.51
11223;BME280;5668;52.012;8.724;2023-03-01T06:55:08;101537.78;;;0.05;74.50
11223;BME280;5668;52.012;8.724;2023-03-01T06:57:36;101539.50;;;0.06;74.38
11223;BME280;5668;52.012;8.724;2023-03-01T07:00:05;101534.34;;;0.08;74.59
11223;BME280;5668;52.012;8.724;2023-03-01T07:02:33;101536.09;;;0.06;74.70
11223;BME280;5668;52.012;8.724;2023-03-01T07:05:00;101542.06;;;0.05;75.08
11223;BME280;5668;52.012;8.724;2023-03-01T07:07:27;101547.16;;;0.06;75.48
11223;BME280;5668;52.012;8.724;2023-03-01T07:09:54;101544.59;;;0.06;75.52
11223;BME280;5668;52.012;8.724;2023-03-01T07:12:21;101542.91;;;0.05;75.92
11223;BME280;5668;52.012;8.724;2023-03-01T07:14:50;101536.09;;;0.07;75.99
11223;BME280;5668;52.012;8.724;2023-03-01T07:17:17;101538.59;;;0.10;76.04
11223;BME280;5668;52.012;8.724;2023-03-01T07:19:44;101530.94;;;0.12;76.48
11223;BME280;5668;52.012;8.724;2023-03-01T07:22:12;101529.22;;;0.12;76.15
11223;BME280;5668;52.012;8.724;2023-03-01T07:24:39;101532.63;;;0.14;76.25
11223;BME280;5668;52.012;8.724;2023-03-01T07:27:07;101524.97;;;0.13;76.13
11223;BME280;5668;52.012;8.724;2023-03-01T07:29:34;101522.41;;;0.11;76.52
11223;BME280;5668;52.012;8.724;2023-03-01T07:32:04;101518.16;;;0.10;76.94
11223;BME280;5668;52.012;8.724;2023-03-01T07:34:31;101524.06;;;0.15;77.40
11223;BME280;5668;52.012;8.724;2023-03-01T07:36:59;101512.13;;;0.17;77.52
11223;BME280;5668;52.012;8.724;2023-03-01T07:39:26;101517.19;;;0.23;77.87
11223;BME280;5668;52.012;8.724;2023-03-01T07:41:53;101509.50;;;0.26;78.14
11223;BME280;5668;52.012;8.724;2023-03-01T07:44:20;101509.47;;;0.32;78.20
11223;BME280;5668;52.012;8.724;2023-03-01T07:46:47;101506.84;;;0.38;78.57
11223;BME280;5668;52.012;8.724;2023-03-01T07:49:16;101503.41;;;0.43;78.79
11223;BME280;5668;52.012;8.724;2023-03-01T07:51:43;101498.25;;;0.47;79.32
11223;BME280;5668;52.012;8.724;2023-03-01T07:54:11;101499.88;;;0.53;79.24
11223;BME280;5668;52.012;8.724;2023-03-01T07:56:38;101504.97;;;0.59;79.43
11223;BME280;5668;52.012;8.724;2023-03-01T07:59:06;101510.84;;;0.67;79.57
11223;BME280;5668;52.012;8.724;2023-03-01T08:01:33;101511.66;;;0.72;79.27
11223;BME280;5668;52.012;8.724;2023-03-01T08:04:01;101510.72;;;0.77;79.94
11223;BME280;5668;52.012;8.724;2023-03-01T08:06:30;101519.22;;;0.83;80.11
11223;BME280;5668;52.012;8.724;2023-03-01T08:08:57;101514.03;;;0.90;80.08
11223;BME280;5668;52.012;8.724;2023-03-01T08:11:24;101518.22;;;0.97;79.61
11223;BME280;5668;52.012;8.724;2023-03-01T08:13:54;101511.31;;;1.02;79.76
11223;BME280;5668;52.012;8.724;2023-03-01T08:16:22;101503.56;;;1.07;79.99
11223;BME280;5668;52.012;8.724;2023-03-01T08:18:49;101503.50;;;1.14;79.94
11223;BME280;5668;52.012;8.724;2023-03-01T08:21:18;101502.59;;;1.19;79.89
11223;BME280;5668;52.012;8.724;2023-03-01T08:23:46;101500.84;;;1.22;80.26
11223;BME280;5668;52.012;8.724;2023-03-01T08:26:16;101504.22;;;1.26;79.77
11223;BME280;5668;52.012;8.724;2023-03-01T08:28:44;101500.72;;;1.33;81.05
11223;BME280;5668;52.012;8.724;2023-03-01T08:31:16;101497.22;;;1.38;80.70
11223;BME280;5668;52.012;8.724;2023-03-01T08:33:44;101499.69;;;1.44;81.34
11223;BME280;5668;52.012;8.724;2023-03-01T08:36:16;101494.47;;;1.52;81.46
11223;BME280;5668;52.012;8.724;2023-03-01T08:38:45;101500.31;;;1.62;82.76
11223;BME280;5668;52.012;8.724;2023-03-01T08:41:13;101494.22;;;1.70;82.60
11223;BME280;5668;52.012;8.724;2023-03-01T08:43:40;101500.13;;;1.75;82.20
11223;BME280;5668;52.012;8.724;2023-03-01T08:46:07;101500.03;;;1.81;82.07
11223;BME280;5668;52.012;8.724;2023-03-01T08:48:35;101505.09;;;1.86;81.56
11223;BME280;5668;52.012;8.724;2023-03-01T08:51:08;101496.47;;;1.91;82.31
11223;BME280;5668;52.012;8.724;2023-03-01T08:53:35;101495.50;;;1.99;81.91
11223;BME280;5668;52.012;8.724;2023-03-01T08:56:04;101497.94;;;2.06;81.53
11223;BME280;5668;52.012;8.724;2023-03-01T08:58:32;101496.19;;;2.10;81.88
11223;BME280;5668;52.012;8.724;2023-03-01T09:00:59;101497.72;;;2.20;82.42
11223;BME280;5668;52.012;8.724;2023-03-01T09:03:27;101499.25;;;2.31;83.75
11223;BME280;5668;52.012;8.724;2023-03-01T09:06:00;101498.25;;;2.40;83.48
11223;BME280;5668;52.012;8.724;2023-03-01T09:08:27;101498.94;;;2.48;82.73
11223;BME280;5668;52.012;8.724;2023-03-01T09:10:55;101491.06;;;2.59;83.27
11223;BME280;5668;52.012;8.724;2023-03-01T09:13:23;101490.06;;;2.67;83.06
11223;BME280;5668;52.012;8.724;2023-03-01T09:15:51;101483.06;;;2.76;82.10
11223;BME280;5668;52.012;8.724;2023-03-01T09:18:18;101481.22;;;2.82;82.46
11223;BME280;5668;52.012;8.724;2023-03-01T09:20:46;101481.94;;;2.89;81.65
11223;BME280;5668;52.012;8.724;2023-03-01T09:23:13;101486.03;;;2.99;81.37
11223;BME280;5668;52.012;8.724;2023-03-01T09:25:40;101485.78;;;3.11;80.28
11223;BME280;5668;52.012;8.724;2023-03-01T09:28:07;101485.66;;;3.17;79.31
11223;BME280;5668;52.012;8.724;2023-03-01T09:30:38;101479.44;;;3.29;78.65
11223;BME280;5668;52.012;8.724;2023-03-01T09:33:05;101476.72;;;3.35;79.14
11223;BME280;5668;52.012;8.724;2023-03-01T09:35:32;101475.72;;;3.42;77.88
11223;BME280;5668;52.012;8.724;2023-03-01T09:37:59;101472.97;;;3.49;77.44
11223;BME280;5668;52.012;8.724;2023-03-01T09:40:28;101464.22;;;3.58;77.34
11223;BME280;5668;52.012;8.724;2023-03-01T09:43:03;101463.19;;;3.67;77.51
11223;BME280;5668;52.012;8.724;2023-03-01T09:45:34;101457.00;;;3.74;76.99
11223;BME280;5668;52.012;8.724;2023-03-01T09:48:04;101456.75;;;3.84;77.35
11223;BME280;5668;52.012;8.724;2023-03-01T09:50:39;101459.94;;;3.94;76.56
11223;BME280;5668;52.012;8.724;2023-03-01T09:53:10;101454.50;;;4.06;76.75
11223;BME280;5668;52.012;8.724;2023-03-01T09:55:43;101451.66;;;4.17;75.77
11223;BME280;5668;52.012;8.724;2023-03-01T09:58:35;101448.88;;;4.26;75.02
11223;BME280;5668;52.012;8.724;2023-03-01T10:01:16;101450.25;;;4.38;74.85
11223;BME280;5668;52.012;8.724;2023-03-01T10:04:06;101446.59;;;4.48;74.45
11223;BME280;5668;52.012;8.724;2023-03-01T10:06:39;101447.22;;;4.56;74.07
11223;BME280;5668;52.012;8.724;2023-03-01T10:09:13;101441.84;;;4.65;73.85
11223;BME280;5668;52.012;8.724;2023-03-01T10:11:44;101450.91;;;4.78;73.06
11223;BME280;5668;52.012;8.724;2023-03-01T10:14:19;101448.84;;;4.89;72.55
11223;BME280;5668;52.012;8.724;2023-03-01T10:16:52;101445.22;;;4.96;72.51
11223;BME280;5668;52.012;8.724;2023-03-01T10:19:29;101433.78;;;5.06;72.18
11223;BME280;5668;52.012;8.724;2023-03-01T10:22:01;101436.09;;;5.16;71.75
11223;BME280;5668;52.012;8.724;2023-03-01T10:24:34;101436.47;;;5.31;71.42
11223;BME280;5668;52.012;8.724;2023-03-01T10:27:05;101428.31;;;5.45;71.36
11223;BME280;5668;52.012;8.724;2023-03-01T10:29:39;101435.63;;;5.59;70.99
11223;BME280;5668;52.012;8.724;2023-03-01T10:32:10;101438.72;;;5.70;70.80
11223;BME280;5668;52.012;8.724;2023-03-01T10:34:39;101431.38;;;5.84;70.71
11223;BME280;5668;52.012;8.724;2023-03-01T10:37:11;101428.31;;;6.01;69.50
11223;BME280;5668;52.012;8.724;2023-03-01T10:39:56;101431.13;;;6.18;68.59
11223;BME280;5668;52.012;8.724;2023-03-01T10:42:28;101421.94;;;6.36;67.72
11223;BME280;5668;52.012;8.724;2023-03-01T10:44:58;101424.09;;;6.48;63.87
11223;BME280;5668;52.012;8.724;2023-03-01T10:47:41;101428.00;;;6.59;60.90
11223;BME280;5668;52.012;8.724;2023-03-01T10:50:20;101424.28;;;6.67;59.94
11223;BME280;5668;52.012;8.724;2023-03-01T10:52:57;101427.25;;;6.79;58.74
11223;BME280;5668;52.012;8.724;2023-03-01T10:55:30;101420.13;;;6.86;58.40
11223;BME280;5668;52.012;8.724;2023-03-01T10:58:16;101417.97;;;6.98;58.67
11223;BME280;5668;52.012;8.724;2023-03-01T11:00:50;101420.91;;;7.11;58.73
11223;BME280;5668;52.012;8.724;2023-03-01T11:03:21;101413.38;;;7.28;59.27
11223;BME280;5668;52.012;8.724;2023-03-01T11:05:57;101414.56;;;7.42;58.26
11223;BME280;5668;52.012;8.724;2023-03-01T11:08:36;101416.59;;;7.55;57.87
11223;BME280;5668;52.012;8.724;2023-03-01T11:11:07;101417.84;;;7.67;58.07
11223;BME280;5668;52.012;8.724;2023-03-01T11:13:52;101405.22;;;7.81;58.93
11223;BME280;5668;52.012;8.724;2023-03-01T11:16:34;101406.25;;;7.97;58.37
11223;BME280;5668;52.012;8.724;2023-03-01T11:19:15;101410.16;;;8.07;55.50
11223;BME280;5668;52.012;8.724;2023-03-01T11:21:50;101397.84;;;8.12;55.38
11223;BME280;5668;52.012;8.724;2023-03-01T11:24:19;101399.28;;;8.20;55.54
11223;BME280;5668;52.012;8.724;2023-03-01T11:26:50;101398.75;;;8.33;56.07
11223;BME280;5668;52.012;8.724;2023-03-01T11:29:26;101393.09;;;8.44;55.88
11223;BME280;5668;52.012;8.724;2023-03-01T11:32:07;101402.09;;;8.56;54.66
11223;BME280;5668;52.012;8.724;2023-03-01T11:34:40;101395.56;;;8.66;55.01
11223;BME280;5668;52.012;8.724;2023-03-01T11:37:21;101391.59;;;8.77;55.02
11223;BME280;5668;52.012;8.724;2023-03-01T11:39:56;101392.84;;;8.87;54.03
11223;BME280;5668;52.012;8.724;2023-03-01T11:42:30;101390.75;;;8.96;53.60
11223;BME280;5668;52.012;8.724;2023-03-01T11:45:08;101393.84;;;9.04;53.30
11223;BME280;5668;52.012;8.724;2023-03-01T11:47:48;101393.41;;;9.13;52.15
11223;BME280;5668;52.012;8.724;2023-03-01T11:50:29;101384.72;;;9.14;49.43
11223;BME280;5668;52.012;8.724;2023-03-01T11:56:15;101388.72;;;9.21;50.47
11223;BME280;5668;52.012;8.724;2023-03-01T11:59:10;101377.84;;;9.31;50.70
11223;BME280;5668;52.012;8.724;2023-03-01T12:01:52;101381.72;;;9.40;49.85
11223;BME280;5668;52.012;8.724;2023-03-01T12:04:40;101372.91;;;9.44;50.08
11223;BME280;5668;52.012;8.724;2023-03-01T12:07:19;101377.13;;;9.47;49.52
11223;BME280;5668;52.012;8.724;2023-03-01T12:09:59;101379.47;;;9.51;48.54
11223;BME280;5668;52.012;8.724;2023-03-01T12:12:34;101370.72;;;9.54;47.64
11223;BME280;5668;52.012;8.724;2023-03-01T12:21:18;101353.75;;;9.64;47.71
11223;BME280;5668;52.012;8.724;2023-03-01T12:26:48;101348.97;;;9.74;47.17
11223;BME280;5668;52.012;8.724;2023-03-01T12:29:29;101343.06;;;9.70;46.31
11223;BME280;5668;52.012;8.724;2023-03-01T12:32:21;101326.38;;;9.76;46.91
11223;BME280;5668;52.012;8.724;2023-03-01T12:35:05;101321.19;;;9.76;46.47
11223;BME280;5668;52.012;8.724;2023-03-01T12:37:46;101313.47;;;9.74;45.17
11223;BME280;5668;52.012;8.724;2023-03-01T12:40:38;101310.34;;;9.67;44.88
11223;BME280;5668;52.012;8.724;2023-03-01T12:43:21;101307.75;;;9.67;45.56
11223;BME280;5668;52.012;8.724;2023-03-01T12:45:57;101307.44;;;9.74;46.14
11223;BME280;5668;52.012;8.724;2023-03-01T12:48:43;101302.38;;;9.70;45.36
11223;BME280;5668;52.012;8.724;2023-03-01T12:51:17;101293.03;;;9.68;45.60
11223;BME280;5668;52.012;8.724;2023-03-01T12:53:48;101299.97;;;9.67;45.04
11223;BME280;5668;52.012;8.724;2023-03-01T12:56:17;101293.88;;;9.68;43.94
11223;BME280;5668;52.012;8.724;2023-03-01T12:58:55;101296.59;;;9.65;44.19
11223;BME280;5668;52.012;8.724;2023-03-01T13:01:35;101293.22;;;9.63;44.33
11223;BME280;5668;52.012;8.724;2023-03-01T13:04:18;101283.69;;;9.64;44.06
11223;BME280;5668;52.012;8.724;2023-03-01T13:06:57;101286.75;;;9.72;44.44
11223;BME280;5668;52.012;8.724;2023-03-01T13:09:32;101283.09;;;9.76;44.63
11223;BME280;5668;52.012;8.724;2023-03-01T13:12:02;101275.13;;;9.79;44.33
11223;BME280;5668;52.012;8.724;2023-03-01T13:14:44;101269.19;;;9.77;42.87
11223;BME280;5668;52.012;8.724;2023-03-01T13:17:40;101270.50;;;9.68;42.33
11223;BME280;5668;52.012;8.724;2023-03-01T13:20:18;101269.59;;;9.69;41.36
11223;BME280;5668;52.012;8.724;2023-03-01T13:22:47;101259.03;;;9.73;42.42
11223;BME280;5668;52.012;8.724;2023-03-01T13:25:18;101267.66;;;9.73;42.70
11223;BME280;5668;52.012;8.724;2023-03-01T13:27:46;101261.03;;;9.67;41.07
11223;BME280;5668;52.012;8.724;2023-03-01T13:30:48;101263.00;;;9.62;40.15
11223;BME280;5668;52.012;8.724;2023-03-01T13:33:49;101255.53;;;9.56;39.78
11223;BME280;5668;52.012;8.724;2023-03-01T13:36:47;101257.59;;;9.50;39.19
11223;BME280;5668;52.012;8.724;2023-03-01T13:39:30;101258.91;;;9.41;39.35
11223;BME280;5668;52.012;8.724;2023-03-01T13:42:00;101260.75;;;9.39;39.97
11223;BME280;5668;52.012;8.724;2023-03-01T13:44:32;101251.13;;;9.41;40.45